Time,TemperatureF,DewpointF,PressureIn,WindDirection,WindDirectionDegrees,WindSpeedMPH,WindSpeedGustMPH,Humidity,HourlyPrecipIn,Conditions,Clouds,dailyrainin,SoftwareType,DateUTC
2013-10-17 00:02:00,54.0,-44.7,29.90,West,270,6.0,8.0,1,0.00,,,0.00,Weather View 32 v70,2013-10-17 04:02:00,
2013-10-17 00:30:00,53.0,-45.3,29.90,West,270,3.0,9.0,1,0.00,,,0.00,Weather View 32 v70,2013-10-17 04:30:00,
2013-10-17 00:31:00,53.0,-45.3,29.90,West,270,3.0,9.0,1,0.00,,,0.00,Weather View 32 v70,2013-10-17 04:31:00,
2013-10-17 01:01:00,53.0,-45.3,29.89,SW,225,4.0,9.0,1,0.00,,,0.00,Weather View 32 v70,2013-10-17 05:01:00,
2013-10-17 01:30:00,53.0,-45.3,29.88,SW,225,2.0,9.0,1,0.00,,,0.00,Weather View 32 v70,2013-10-17 05:30:00,
2013-10-17 01:32:00,53.0,-45.3,29.88,SW,225,2.0,9.0,1,0.00,,,0.00,Weather View 32 v70,2013-10-17 05:32:00,
2013-10-17 02:03:00,53.0,-45.3,29.88,WNW,292,2.0,9.0,1,0.00,,,0.00,Weather View 32 v70,2013-10-17 06:03:00,
2013-10-17 02:30:00,53.0,-45.3,29.87,West,270,6.0,10.0,1,0.00,,,0.00,Weather View 32 v70,2013-10-17 06:30:00,
2013-10-17 02:33:00,53.0,-45.3,29.87,West,270,6.0,10.0,1,0.00,,,0.00,Weather View 32 v70,2013-10-17 06:33:00,
2013-10-17 03:00:00,53.0,-45.3,29.85,WNW,292,0.0,10.0,1,0.00,,,0.00,Weather View 32 v70,2013-10-17 07:00:00,
2013-10-17 03:31:00,53.0,-45.3,29.86,SSE,157,1.0,9.0,1,0.00,,,0.00,Weather View 32 v70,2013-10-17 07:31:00,
2013-10-17 04:02:00,53.0,-45.3,29.85,SE,135,1.0,7.0,1,0.00,,,0.00,Weather View 32 v70,2013-10-17 08:02:00,
2013-10-17 04:33:00,54.0,-44.7,29.85,SE,135,1.0,7.0,1,0.00,,,0.00,Weather View 32 v70,2013-10-17 08:33:00,
2013-10-17 05:01:00,54.0,-44.7,29.84,ESE,112,1.0,6.0,1,0.00,,,0.00,Weather View 32 v70,2013-10-17 09:01:00,
2013-10-17 05:32:00,54.0,-44.7,29.83,ESE,112,4.0,7.0,1,0.00,,,0.00,Weather View 32 v70,2013-10-17 09:32:00,
2013-10-17 06:01:00,54.0,-44.7,29.82,NE,45,1.0,7.0,1,0.00,,,0.00,Weather View 32 v70,2013-10-17 10:01:00,
2013-10-17 06:31:00,54.0,-44.7,29.82,SE,135,2.0,7.0,1,0.00,,,0.00,Weather View 32 v70,2013-10-17 10:31:00,
2013-10-17 12:00:00,58.0,15.9,29.79,ESE,112,6.0,12.0,19,0.00,,,0.00,Weather View 32 v70,2013-10-17 16:00:00,
2013-10-17 12:01:00,58.0,15.9,29.79,ESE,112,6.0,12.0,19,0.00,,,0.00,Weather View 32 v70,2013-10-17 16:01:00,
2013-10-17 12:33:00,60.0,22.0,29.78,East,90,1.0,9.0,23,0.00,,,0.00,Weather View 32 v70,2013-10-17 16:33:00,
2013-10-17 13:00:00,59.0,16.7,29.77,ESE,112,4.0,10.0,19,0.00,,,0.00,Weather View 32 v70,2013-10-17 17:00:00,
2013-10-17 13:02:00,59.0,16.7,29.77,ESE,112,4.0,10.0,19,0.00,,,0.00,Weather View 32 v70,2013-10-17 17:02:00,
2013-10-17 13:31:00,60.0,29.2,29.76,ESE,112,6.0,11.0,31,0.00,,,0.00,Weather View 32 v70,2013-10-17 17:31:00,
2013-10-17 14:00:00,61.0,29.3,29.74,East,90,4.0,12.0,30,0.00,,,0.00,Weather View 32 v70,2013-10-17 18:00:00,
2013-10-17 14:03:00,61.0,29.3,29.74,East,90,4.0,12.0,30,0.00,,,0.00,Weather View 32 v70,2013-10-17 18:03:00,
2013-10-17 14:30:00,61.0,38.3,29.74,ESE,112,6.0,12.0,43,0.00,,,0.00,Weather View 32 v70,2013-10-17 18:30:00,
2013-10-17 15:00:00,61.0,37.1,29.74,ESE,112,6.0,12.0,41,0.00,,,0.00,Weather View 32 v70,2013-10-17 19:00:00,
2013-10-17 15:01:00,61.0,37.1,29.74,ESE,112,6.0,12.0,41,0.00,,,0.00,Weather View 32 v70,2013-10-17 19:01:00,
2013-10-17 15:30:00,60.0,27.6,29.74,ESE,112,4.0,13.0,29,0.00,,,0.00,Weather View 32 v70,2013-10-17 19:30:00,
2013-10-17 16:00:00,61.0,37.7,29.73,SSE,157,2.0,13.0,42,0.00,,,0.00,Weather View 32 v70,2013-10-17 20:00:00,
2013-10-17 16:01:00,61.0,37.7,29.73,SSE,157,2.0,13.0,42,0.00,,,0.00,Weather View 32 v70,2013-10-17 20:01:00,
2013-10-17 16:32:00,60.0,19.9,29.74,ENE,67,2.0,13.0,21,0.00,,,0.00,Weather View 32 v70,2013-10-17 20:32:00,
2013-10-17 17:00:00,58.0,13.4,29.74,East,90,7.0,13.0,17,0.00,,,0.00,Weather View 32 v70,2013-10-17 21:00:00,
2013-10-17 17:02:00,58.0,13.4,29.74,East,90,7.0,13.0,17,0.00,,,0.00,Weather View 32 v70,2013-10-17 21:02:00,
2013-10-17 17:33:00,55.0,-44.1,29.76,NE,45,6.0,10.0,1,0.00,,,0.00,Weather View 32 v70,2013-10-17 21:33:00,
2013-10-17 18:01:00,54.0,-44.7,29.76,East,90,6.0,10.0,1,0.00,,,0.00,Weather View 32 v70,2013-10-17 22:01:00,
2013-10-17 18:32:00,54.0,-44.7,29.77,East,90,6.0,12.0,1,0.00,,,0.00,Weather View 32 v70,2013-10-17 22:32:00,
2013-10-17 19:03:00,53.0,-45.3,29.77,East,90,2.0,12.0,1,0.00,,,0.00,Weather View 32 v70,2013-10-17 23:03:00,
2013-10-17 19:34:00,53.0,-45.3,29.78,NE,45,2.0,10.0,1,0.00,,,0.00,Weather View 32 v70,2013-10-17 23:34:00,
2013-10-17 20:05:00,53.0,-45.3,29.78,NNW,337,0.0,8.0,1,0.00,,,0.00,Weather View 32 v70,2013-10-18 00:05:00,
2013-10-17 20:32:00,53.0,-45.3,29.78,NW,315,3.0,6.0,1,0.00,,,0.00,Weather View 32 v70,2013-10-18 00:32:00,
2013-10-17 20:38:00,53.0,-45.3,29.78,NW,315,3.0,6.0,1,0.00,,,0.00,Weather View 32 v70,2013-10-18 00:38:00,
2013-10-17 21:03:00,53.0,-45.3,29.78,NNW,337,2.0,5.0,1,0.00,,,0.00,Weather View 32 v70,2013-10-18 01:03:00,
2013-10-17 21:34:00,53.0,-45.3,29.79,East,90,4.0,8.0,1,0.00,,,0.00,Weather View 32 v70,2013-10-18 01:34:00,
2013-10-17 21:39:00,53.0,-45.3,29.79,East,90,4.0,8.0,1,0.00,,,0.00,Weather View 32 v70,2013-10-18 01:39:00,
2013-10-17 22:00:00,53.0,-45.3,29.78,East,90,5.0,8.0,1,0.00,,,0.00,Weather View 32 v70,2013-10-18 02:00:00,
2013-10-17 22:30:00,53.0,-45.3,29.77,East,90,4.0,6.0,1,0.00,,,0.00,Weather View 32 v70,2013-10-18 02:30:00,
2013-10-17 22:31:00,53.0,-45.3,29.77,East,90,4.0,6.0,1,0.00,,,0.00,Weather View 32 v70,2013-10-18 02:31:00,
2013-10-17 23:02:00,53.0,-45.3,29.77,North,360,4.0,6.0,1,0.00,,,0.00,Weather View 32 v70,2013-10-18 03:02:00,
2013-10-17 23:30:00,52.0,-46.0,29.76,NE,45,4.0,7.0,1,0.00,,,0.00,Weather View 32 v70,2013-10-18 03:30:00,
2013-10-17 23:32:00,52.0,-46.0,29.76,NE,45,4.0,7.0,1,0.00,,,0.00,Weather View 32 v70,2013-10-18 03:32:00,